Time;durP1;ratioP1;P1;durP2;ratioP2;P2;SDS_P1;SDS_P2;PMS_P1;PMS_P2;Temp;Humidity;BMP_temperature;BMP_pressure;BME280_temperature;BME280_humidity;BME280_pressure;Samples;Min_cycle;Max_cycle;Signal;HPM_P1;HPM_P2
2022/03/17 00:00:11;;;;;;;11.68;7.32;;;8.50;99.90;;;;;;5049100;28;20185;-71
2022/03/17 00:02:38;;;;;;;12.20;7.60;;;8.40;99.90;;;;;;5048675;28;20353;-71
2022/03/17 00:05:09;;;;;;;11.10;8.25;;;8.30;99.90;;;;;;5049110;28;20219;-71
2022/03/17 00:07:40;;;;;;;12.48;7.88;;;8.30;99.90;;;;;;5049218;28;20154;-71
2022/03/17 00:10:08;;;;;;;11.73;7.53;;;8.30;99.90;;;;;;5048920;28;20169;-71
2022/03/17 00:12:34;;;;;;;10.43;7.88;;;8.30;99.90;;;;;;5047353;28;20173;-71
2022/03/17 00:15:00;;;;;;;10.70;7.53;;;8.20;99.90;;;;;;5049021;28;20182;-72
2022/03/17 00:17:26;;;;;;;12.13;8.02;;;8.20;99.90;;;;;;5049202;28;20157;-72
2022/03/17 00:19:53;;;;;;;11.30;8.05;;;8.20;99.90;;;;;;5049266;28;20157;-72
2022/03/17 00:22:19;;;;;;;12.65;7.28;;;8.10;99.90;;;;;;5047805;28;20168;-72
2022/03/17 00:24:46;;;;;;;12.80;7.97;;;8.10;99.90;;;;;;5048657;28;20189;-72
2022/03/17 00:27:12;;;;;;;15.02;8.25;;;8.10;99.90;;;;;;5048304;28;20179;-72
2022/03/17 00:29:39;;;;;;;13.77;8.18;;;7.90;99.90;;;;;;5044627;28;20177;-72
2022/03/17 00:32:07;;;;;;;11.90;7.40;;;7.70;99.90;;;;;;5047785;28;20181;-72
2022/03/17 00:35:35;;;;;;;12.77;7.63;;;7.50;99.90;;;;;;5047484;28;20197;-72
2022/03/17 00:37:25;;;;;;;10.60;7.70;;;7.40;99.90;;;;;;5048552;28;20212;-72
2022/03/17 00:39:52;;;;;;;13.43;8.23;;;7.30;99.90;;;;;;5049094;28;20161;-72
2022/03/17 00:42:19;;;;;;;13.98;8.32;;;7.20;99.90;;;;;;5047672;28;20172;-72
2022/03/17 00:44:46;;;;;;;12.15;8.48;;;7.00;99.90;;;;;;5048746;28;20201;-71
2022/03/17 00:47:13;;;;;;;14.68;7.93;;;6.90;99.90;;;;;;5048906;28;20154;-72
2022/03/17 00:49:39;;;;;;;12.57;8.10;;;6.70;99.90;;;;;;5047492;28;20188;-72
2022/03/17 00:52:10;;;;;;;10.60;7.18;;;6.50;99.90;;;;;;5048808;28;20162;-72
2022/03/17 00:54:42;;;;;;;12.20;8.18;;;6.20;99.90;;;;;;5048620;28;20220;-72
2022/03/17 00:57:09;;;;;;;12.05;7.10;;;6.10;99.90;;;;;;5041115;28;20304;-73
2022/03/17 00:59:39;;;;;;;14.35;8.23;;;5.80;99.90;;;;;;5047039;28;20284;-72
2022/03/17 01:02:07;;;;;;;12.88;8.05;;;5.80;99.90;;;;;;5066791;28;20241;-72
2022/03/17 01:04:34;;;;;;;15.18;7.30;;;5.80;99.90;;;;;;5068516;28;20195;-73
2022/03/17 01:07:00;;;;;;;12.15;7.80;;;5.70;99.90;;;;;;5068618;28;20239;-72
2022/03/17 01:09:28;;;;;;;14.70;8.95;;;5.60;99.90;;;;;;5068452;28;20161;-72
2022/03/17 01:11:54;;;;;;;14.23;8.05;;;5.60;99.90;;;;;;5050135;28;20204;-72
2022/03/17 01:14:21;;;;;;;12.27;7.68;;;5.60;99.90;;;;;;5072355;28;20182;-72
2022/03/17 01:16:46;;;;;;;13.63;7.50;;;5.70;99.90;;;;;;5054182;28;20176;-72
2022/03/17 01:19:12;;;;;;;12.27;7.97;;;5.80;99.90;;;;;;5072179;28;20204;-72
2022/03/17 01:21:38;;;;;;;12.73;7.70;;;5.80;99.90;;;;;;5071992;28;20192;-72
2022/03/17 01:24:05;;;;;;;17.17;9.48;;;5.80;99.90;;;;;;5054068;28;20172;-72
2022/03/17 01:26:31;;;;;;;13.70;9.48;;;5.80;99.90;;;;;;5072133;28;20165;-72
2022/03/17 01:28:57;;;;;;;13.70;8.52;;;5.80;99.90;;;;;;5071881;28;20195;-72
2022/03/17 01:31:23;;;;;;;14.57;8.80;;;5.70;99.90;;;;;;5053720;28;20200;-72
2022/03/17 01:33:50;;;;;;;15.13;8.82;;;5.60;99.90;;;;;;5070581;28;20164;-72
2022/03/17 01:36:16;;;;;;;13.32;8.10;;;5.50;99.90;;;;;;5050263;28;20607;-72
2022/03/17 01:38:42;;;;;;;13.80;8.07;;;5.30;99.90;;;;;;5051730;28;20189;-72
2022/03/17 01:41:08;;;;;;;13.38;8.48;;;5.30;99.90;;;;;;5051653;28;20168;-72
2022/03/17 01:43:34;;;;;;;14.45;8.18;;;5.30;99.90;;;;;;5051825;28;20162;-72
2022/03/17 01:46:00;;;;;;;13.20;7.95;;;5.20;99.90;;;;;;5051612;28;20196;-72
2022/03/17 01:48:26;;;;;;;14.80;8.35;;;5.00;99.90;;;;;;5051692;28;20169;-72
2022/03/17 01:50:53;;;;;;;13.18;7.82;;;4.70;99.90;;;;;;5051605;28;20170;-72
2022/03/17 01:53:21;;;;;;;15.00;8.75;;;4.50;99.90;;;;;;5051570;28;20165;-71
2022/03/17 01:55:47;;;;;;;13.88;9.07;;;4.40;99.90;;;;;;5051501;28;20371;-72
2022/03/17 01:58:13;;;;;;;15.57;8.55;;;4.30;99.90;;;;;;5033388;28;20255;-72
2022/03/17 02:00:42;;;;;;;17.27;9.05;;;4.20;99.90;;;;;;5033686;28;20607;-72
2022/03/17 02:03:08;;;;;;;14.52;8.15;;;4.30;99.90;;;;;;5051412;28;20196;-72
2022/03/17 02:05:34;;;;;;;16.25;9.30;;;4.40;99.90;;;;;;5051307;28;20185;-72
2022/03/17 02:08:01;;;;;;;14.23;7.97;;;4.30;99.90;;;;;;5051275;28;20176;-72
2022/03/17 02:13:08;;;;;;;13.63;8.80;;;4.30;99.90;;;;;;5051264;28;20153;-72
2022/03/17 02:13:13;;;;;;;14.75;8.48;;;4.20;99.90;;;;;;5051276;28;20168;-72
2022/03/17 02:15:40;;;;;;;16.23;9.00;;;4.20;99.90;;;;;;5049872;28;20201;-71
2022/03/17 02:18:06;;;;;;;15.32;8.98;;;4.30;99.90;;;;;;5051112;28;20268;-71
2022/03/17 02:20:33;;;;;;;13.48;8.18;;;4.30;99.90;;;;;;5051151;28;20158;-72
2022/03/17 02:26:04;;;;;;;14.52;9.50;;;4.00;99.90;;;;;;5050991;28;20266;-72
2022/03/17 02:28:32;;;;;;;16.00;8.18;;;3.90;99.90;;;;;;5050952;28;20157;-72
2022/03/17 02:31:00;;;;;;;13.48;8.77;;;3.80;99.90;;;;;;5050869;28;20225;-72
2022/03/17 02:33:26;;;;;;;16.23;8.48;;;3.70;99.90;;;;;;5050846;28;20195;-72
2022/03/17 02:35:53;;;;;;;14.93;8.02;;;3.70;99.90;;;;;;5050678;28;20205;-71
2022/03/17 02:38:21;;;;;;;16.90;8.05;;;3.60;99.90;;;;;;5050750;28;20196;-71
2022/03/17 02:40:52;;;;;;;20.98;9.38;;;3.60;99.90;;;;;;5050780;28;20501;-72
2022/03/17 02:43:19;;;;;;;14.20;8.75;;;3.60;99.90;;;;;;5050605;28;20173;-72
2022/03/17 02:45:47;;;;;;;14.13;8.88;;;3.50;99.90;;;;;;5050588;28;20185;-72
2022/03/17 02:48:16;;;;;;;16.77;10.07;;;3.60;99.90;;;;;;5050577;28;20162;-72
2022/03/17 02:50:42;;;;;;;15.65;8.93;;;3.70;99.90;;;;;;5050552;28;20176;-72
2022/03/17 02:53:11;;;;;;;18.13;9.10;;;3.60;99.90;;;;;;5032710;28;20169;-72
2022/03/17 02:55:40;;;;;;;15.18;8.40;;;3.60;99.90;;;;;;5050418;28;20257;-72
2022/03/17 02:58:09;;;;;;;15.50;10.38;;;3.80;99.90;;;;;;5050102;28;20221;-71
2022/03/17 03:00:35;;;;;;;16.58;8.88;;;4.00;99.90;;;;;;5032471;28;20169;-71
2022/03/17 03:03:03;;;;;;;18.42;9.82;;;4.00;99.90;;;;;;5049086;28;20176;-72
2022/03/17 03:05:29;;;;;;;19.33;10.43;;;4.00;99.90;;;;;;5050110;28;20256;-71
2022/03/17 03:07:55;;;;;;;16.67;9.80;;;4.00;99.90;;;;;;5032445;28;20211;-71
2022/03/17 03:10:21;;;;;;;21.30;9.75;;;4.10;99.90;;;;;;5050128;28;20537;-71
2022/03/17 03:12:47;;;;;;;18.40;10.35;;;4.10;99.90;;;;;;5032252;28;20173;-71
2022/03/17 03:15:14;;;;;;;14.55;9.65;;;4.10;99.90;;;;;;5049977;28;20204;-71
2022/03/17 03:17:40;;;;;;;16.73;9.48;;;4.10;99.90;;;;;;5032105;28;20204;-71
2022/03/17 03:20:07;;;;;;;17.17;9.23;;;4.10;99.90;;;;;;5032138;28;20239;-71
2022/03/17 03:22:39;;;;;;;14.63;8.55;;;4.00;99.90;;;;;;5049928;28;20160;-71
2022/03/17 03:25:07;;;;;;;15.27;9.10;;;3.90;99.90;;;;;;5049727;28;20193;-72
2022/03/17 03:27:34;;;;;;;17.25;9.75;;;3.90;99.90;;;;;;5049961;28;20160;-71
2022/03/17 03:30:01;;;;;;;19.60;9.98;;;3.90;99.90;;;;;;5031938;28;20169;-72
2022/03/17 03:32:27;;;;;;;13.73;8.68;;;3.90;99.90;;;;;;5049761;28;20164;-71
2022/03/17 03:34:53;;;;;;;14.63;9.00;;;4.00;99.90;;;;;;5049271;28;20272;-72
2022/03/17 03:37:26;;;;;;;14.23;8.65;;;3.90;99.90;;;;;;5031166;28;20544;-71
2022/03/17 03:39:55;;;;;;;20.38;10.05;;;3.90;99.90;;;;;;5049606;28;20189;-71
2022/03/17 03:42:23;;;;;;;17.08;9.80;;;3.70;99.90;;;;;;5049548;28;20193;-71
2022/03/17 03:44:49;;;;;;;19.35;10.50;;;3.80;99.90;;;;;;5031677;28;20189;-71
2022/03/17 03:47:15;;;;;;;19.10;9.95;;;3.90;99.90;;;;;;5049448;28;20183;-71
2022/03/17 03:49:42;;;;;;;18.77;9.85;;;4.00;99.90;;;;;;5049461;28;20153;-71
2022/03/17 03:52:11;;;;;;;17.95;11.43;;;3.90;99.90;;;;;;5031631;28;20181;-71
2022/03/17 03:54:38;;;;;;;17.38;11.35;;;3.90;99.90;;;;;;5047996;28;20197;-71
2022/03/17 03:57:04;;;;;;;17.30;9.95;;;4.00;99.90;;;;;;5049036;28;20216;-71
2022/03/17 03:59:31;;;;;;;17.63;10.18;;;4.00;99.90;;;;;;5049057;28;20211;-71
2022/03/17 04:02:00;;;;;;;21.52;12.00;;;3.90;99.90;;;;;;5049278;28;20169;-71
2022/03/17 04:04:28;;;;;;;19.80;10.50;;;4.00;99.90;;;;;;5031325;28;20217;-71
2022/03/17 04:07:00;;;;;;;17.40;10.38;;;4.00;99.90;;;;;;5047785;28;20188;-71
2022/03/17 04:09:28;;;;;;;18.90;10.93;;;4.10;99.90;;;;;;5047917;28;20162;-71
2022/03/17 04:11:56;;;;;;;18.48;10.00;;;4.00;99.90;;;;;;5048932;28;20154;-71
2022/03/17 04:14:23;;;;;;;15.52;9.88;;;3.90;99.90;;;;;;5048957;28;20193;-71
2022/03/17 04:16:49;;;;;;;18.40;10.02;;;3.90;99.90;;;;;;5031274;28;20185;-71
2022/03/17 04:19:16;;;;;;;15.25;9.30;;;3.80;99.90;;;;;;5047728;28;20197;-71
2022/03/17 04:21:44;;;;;;;19.45;9.90;;;3.80;99.90;;;;;;5048890;28;20224;-71
2022/03/17 04:24:10;;;;;;;18.00;9.75;;;3.80;99.90;;;;;;5048775;28;20189;-71
2022/03/17 04:26:36;;;;;;;20.00;11.10;;;3.80;99.90;;;;;;5048976;28;20180;-71
2022/03/17 04:29:02;;;;;;;14.40;9.23;;;3.80;99.90;;;;;;5047382;28;20165;-71
2022/03/17 04:31:29;;;;;;;18.60;10.07;;;3.90;99.90;;;;;;5047221;28;20630;-71
2022/03/17 04:33:56;;;;;;;16.50;10.10;;;3.80;99.90;;;;;;5047585;28;20169;-71
2022/03/17 04:36:22;;;;;;;16.85;9.77;;;3.80;99.90;;;;;;5047358;28;20232;-71
2022/03/17 04:38:49;;;;;;;17.13;9.75;;;3.80;99.90;;;;;;5048722;28;20193;-71
2022/03/17 04:41:17;;;;;;;16.25;9.00;;;3.80;99.90;;;;;;5047520;28;20165;-71
2022/03/17 04:43:43;;;;;;;16.73;9.85;;;3.70;99.90;;;;;;5048492;28;20158;-71
2022/03/17 04:46:09;;;;;;;14.80;9.18;;;3.50;99.90;;;;;;5030890;28;20168;-71
2022/03/17 04:48:36;;;;;;;20.10;10.27;;;3.40;99.90;;;;;;5052019;28;20203;-72
2022/03/17 04:51:02;;;;;;;16.25;10.65;;;3.30;99.90;;;;;;5052434;28;20264;-72
2022/03/17 04:53:28;;;;;;;19.75;10.10;;;3.40;99.90;;;;;;5052368;28;20198;-73
2022/03/17 04:55:55;;;;;;;15.55;9.73;;;3.40;99.90;;;;;;5051133;28;20197;-72
2022/03/17 04:58:21;;;;;;;16.45;10.00;;;3.40;99.90;;;;;;5052175;28;20264;-73
2022/03/17 05:00:47;;;;;;;15.50;9.50;;;3.30;99.90;;;;;;5052426;28;20213;-73
2022/03/17 05:03:14;;;;;;;18.40;10.07;;;3.30;99.90;;;;;;5052424;28;20162;-72
2022/03/17 05:05:40;;;;;;;17.50;9.88;;;3.40;99.90;;;;;;5050991;28;20197;-72
2022/03/17 05:08:08;;;;;;;22.75;9.25;;;3.50;99.90;;;;;;5052137;28;20169;-72
2022/03/17 05:10:37;;;;;;;16.88;9.07;;;3.50;99.90;;;;;;5052197;28;20160;-72
2022/03/17 05:13:05;;;;;;;18.77;11.20;;;3.40;99.90;;;;;;5052217;28;20164;-72
2022/03/17 05:15:31;;;;;;;15.95;9.57;;;3.30;99.90;;;;;;5034211;28;20193;-72
2022/03/17 05:17:57;;;;;;;19.92;9.82;;;3.30;99.90;;;;;;5052071;28;20189;-72
2022/03/17 05:20:24;;;;;;;17.15;9.90;;;3.20;99.90;;;;;;5052039;28;20156;-71
2022/03/17 05:22:51;;;;;;;19.58;11.73;;;3.10;99.90;;;;;;5033990;28;20162;-72
2022/03/17 05:25:18;;;;;;;17.92;10.50;;;3.00;99.90;;;;;;5050493;28;20371;-72
2022/03/17 05:27:46;;;;;;;20.58;10.40;;;3.00;99.90;;;;;;5051772;28;20154;-72
2022/03/17 05:30:14;;;;;;;19.88;10.25;;;3.00;99.90;;;;;;5051762;28;20180;-72
2022/03/17 05:32:41;;;;;;;20.98;10.90;;;3.00;99.90;;;;;;5051759;28;20162;-71
2022/03/17 05:35:08;;;;;;;18.55;10.63;;;2.80;99.90;;;;;;5051744;28;20189;-72
2022/03/17 05:37:35;;;;;;;19.88;10.30;;;2.80;99.90;;;;;;5051622;28;20154;-72
2022/03/17 05:40:05;;;;;;;19.48;10.50;;;2.90;99.90;;;;;;5051461;28;20165;-71
2022/03/17 05:42:33;;;;;;;19.98;10.40;;;3.00;99.90;;;;;;5050373;28;20197;-72
2022/03/17 05:44:59;;;;;;;22.60;11.75;;;3.20;99.90;;;;;;5051388;28;20197;-72
2022/03/17 05:47:25;;;;;;;16.77;10.38;;;3.30;99.90;;;;;;5050129;28;20176;-72
2022/03/17 05:49:51;;;;;;;22.02;10.75;;;3.30;99.90;;;;;;5033464;28;20170;-71
2022/03/17 05:52:17;;;;;;;21.88;10.40;;;3.30;99.90;;;;;;5050060;28;20177;-72
2022/03/17 05:54:44;;;;;;;21.98;11.25;;;3.50;99.90;;;;;;5033296;28;20240;-72
2022/03/17 05:57:10;;;;;;;17.45;10.43;;;3.60;99.90;;;;;;5050772;28;20626;-72
2022/03/17 05:59:39;;;;;;;17.00;9.02;;;3.80;99.90;;;;;;5048452;28;20207;-71
2022/03/17 06:02:06;;;;;;;15.73;9.20;;;3.90;99.90;;;;;;5051335;28;20618;-71
2022/03/17 06:04:32;;;;;;;22.38;10.38;;;4.00;99.90;;;;;;5050467;28;20193;-72
2022/03/17 06:06:58;;;;;;;24.02;11.27;;;4.10;99.90;;;;;;5051132;28;20162;-72
2022/03/17 06:09:24;;;;;;;22.73;11.00;;;4.20;99.90;;;;;;5050955;28;20694;-72
2022/03/17 06:11:50;;;;;;;19.88;11.30;;;4.20;99.90;;;;;;5033063;28;20228;-72
2022/03/17 06:14:16;;;;;;;17.77;10.55;;;4.30;99.90;;;;;;5049549;28;20205;-73
2022/03/17 06:16:42;;;;;;;21.67;10.10;;;4.40;99.90;;;;;;5032997;28;20166;-72
2022/03/17 06:19:08;;;;;;;18.30;10.57;;;4.50;99.90;;;;;;5050779;28;20221;-72
2022/03/17 06:21:34;;;;;;;21.90;12.85;;;4.50;99.90;;;;;;5032867;28;20171;-72
2022/03/17 06:24:00;;;;;;;30.83;12.80;;;4.50;99.90;;;;;;5032157;28;20217;-73
2022/03/17 06:26:26;;;;;;;24.58;11.88;;;4.60;99.90;;;;;;5032696;28;20181;-71
2022/03/17 06:28:52;;;;;;;16.55;11.00;;;4.70;99.90;;;;;;5049124;28;20214;-72
2022/03/17 06:31:17;;;;;;;18.63;10.20;;;4.80;99.90;;;;;;5047576;28;20183;-71
2022/03/17 06:33:45;;;;;;;20.90;10.25;;;4.90;99.90;;;;;;5050376;28;20161;-73
2022/03/17 06:36:13;;;;;;;18.45;10.55;;;5.10;99.90;;;;;;5050565;28;20244;-73
2022/03/17 06:38:39;;;;;;;27.88;11.45;;;5.30;99.90;;;;;;5049009;28;20209;-72
2022/03/17 06:41:05;;;;;;;22.23;13.20;;;5.50;99.90;;;;;;5050206;28;20157;-72
2022/03/17 06:43:31;;;;;;;27.63;11.43;;;5.50;99.90;;;;;;5048943;28;20161;-73
2022/03/17 06:45:57;;;;;;;16.42;9.48;;;5.40;99.90;;;;;;5050457;28;20230;-73
2022/03/17 06:48:23;;;;;;;23.20;10.40;;;5.50;99.90;;;;;;5032305;28;20197;-72
2022/03/17 06:50:49;;;;;;;17.98;9.95;;;5.80;99.90;;;;;;5032195;28;20184;-72
2022/03/17 06:53:15;;;;;;;18.25;11.90;;;5.90;99.90;;;;;;5050382;28;20168;-71
2022/03/17 06:55:41;;;;;;;16.55;10.48;;;6.00;99.90;;;;;;5050145;28;20166;-70
2022/03/17 06:58:07;;;;;;;16.85;9.85;;;6.10;99.90;;;;;;5028647;28;20252;-71
2022/03/17 07:00:33;;;;;;;22.08;12.25;;;6.30;99.90;;;;;;5030321;28;20165;-71
2022/03/17 07:02:59;;;;;;;18.13;11.88;;;6.30;99.90;;;;;;5030081;28;20158;-71
2022/03/17 07:05:25;;;;;;;17.30;11.02;;;6.30;99.90;;;;;;5030180;28;20154;-70
2022/03/17 07:07:51;;;;;;;27.80;11.20;;;6.40;99.90;;;;;;5030082;28;20189;-70
2022/03/17 07:10:17;;;;;;;21.90;11.80;;;6.60;99.90;;;;;;5028328;28;20245;-71
2022/03/17 07:12:44;;;;;;;29.30;11.00;;;6.50;99.90;;;;;;5030078;28;20166;-71
2022/03/17 07:15:10;;;;;;;16.70;10.88;;;6.70;99.90;;;;;;5029963;28;20150;-71
2022/03/17 07:17:39;;;;;;;19.27;11.55;;;6.80;99.90;;;;;;5029652;28;20221;-71
2022/03/17 07:20:16;;;;;;;21.83;10.95;;;6.80;99.90;;;;;;5030034;28;20181;-72
2022/03/17 07:22:43;;;;;;;20.10;10.60;;;6.90;99.90;;;;;;5029981;28;20169;-71
2022/03/17 07:25:11;;;;;;;16.55;11.13;;;7.10;99.90;;;;;;5029968;28;20208;-71
2022/03/17 07:27:43;;;;;;;20.55;11.55;;;7.20;99.90;;;;;;5044975;28;20198;-73
2022/03/17 07:30:18;;;;;;;27.70;13.18;;;7.30;99.90;;;;;;5029704;28;20182;-71
2022/03/17 07:32:47;;;;;;;17.88;10.65;;;7.50;99.90;;;;;;5029855;28;20189;-72
2022/03/17 07:35:14;;;;;;;19.20;10.93;;;7.80;99.90;;;;;;5029633;28;20150;-74
2022/03/17 07:37:41;;;;;;;17.85;10.50;;;7.90;99.90;;;;;;5029299;28;20189;-74
2022/03/17 07:40:08;;;;;;;28.15;11.77;;;8.40;99.90;;;;;;5029558;28;20186;-73
2022/03/17 07:42:35;;;;;;;19.17;10.70;;;8.80;99.90;;;;;;5029783;28;20170;-71
2022/03/17 07:45:02;;;;;;;17.55;10.05;;;9.00;99.90;;;;;;5029662;28;20158;-71
2022/03/17 07:47:28;;;;;;;25.08;11.15;;;9.10;99.90;;;;;;5029272;28;20158;-71
2022/03/17 07:49:54;;;;;;;20.98;11.93;;;9.50;99.90;;;;;;5028314;28;20185;-71
2022/03/17 07:52:20;;;;;;;16.23;10.85;;;9.70;99.90;;;;;;5029522;28;20223;-70
2022/03/17 07:54:46;;;;;;;17.65;10.77;;;9.80;99.90;;;;;;5029385;28;20225;-73
2022/03/17 07:57:13;;;;;;;20.77;11.40;;;9.90;99.90;;;;;;5027986;28;20596;-73
2022/03/17 07:59:40;;;;;;;18.23;10.95;;;10.40;99.90;;;;;;5028977;28;20304;-73
2022/03/17 08:02:06;;;;;;;17.83;11.20;;;10.50;99.90;;;;;;5037144;28;20193;-73
2022/03/17 08:04:32;;;;;;;21.00;10.55;;;10.40;99.90;;;;;;5047288;28;20195;-73
2022/03/17 08:07:00;;;;;;;21.95;11.25;;;10.90;99.90;;;;;;5041667;28;20188;-73
2022/03/17 08:09:30;;;;;;;20.67;11.02;;;11.40;99.90;;;;;;5043698;28;20201;-73
2022/03/17 08:11:56;;;;;;;18.40;10.40;;;11.50;99.90;;;;;;5032293;28;20185;-73
2022/03/17 08:14:22;;;;;;;17.45;10.60;;;12.30;99.90;;;;;;5048557;28;20183;-73
2022/03/17 08:16:49;;;;;;;20.08;10.90;;;11.90;99.90;;;;;;5048787;28;20174;-73
2022/03/17 08:19:14;;;;;;;18.35;11.30;;;11.90;99.90;;;;;;5047503;28;20260;-73
2022/03/17 08:21:41;;;;;;;20.90;10.65;;;12.30;99.90;;;;;;5048301;28;20165;-73
2022/03/17 08:24:07;;;;;;;23.77;11.75;;;12.70;99.80;;;;;;5047484;28;20176;-74
2022/03/17 08:26:34;;;;;;;17.98;10.43;;;12.80;99.60;;;;;;5048834;28;20216;-74
2022/03/17 08:29:01;;;;;;;22.35;11.35;;;12.80;99.40;;;;;;5048899;28;20188;-74
2022/03/17 08:31:28;;;;;;;20.92;11.40;;;13.00;99.20;;;;;;5048768;28;20240;-75
2022/03/17 08:33:56;;;;;;;15.40;11.05;;;13.40;98.80;;;;;;5047343;28;20172;-74
2022/03/17 08:36:26;;;;;;;17.13;11.25;;;13.30;99.00;;;;;;5048693;28;20193;-73
2022/03/17 08:38:53;;;;;;;17.55;11.88;;;13.60;99.10;;;;;;5048462;28;20236;-74
2022/03/17 08:41:20;;;;;;;17.73;12.02;;;13.20;99.10;;;;;;5048517;28;20158;-74
2022/03/17 08:43:46;;;;;;;22.33;12.02;;;13.20;99.00;;;;;;5048664;28;20254;-74
2022/03/17 08:51:41;;;;;;;23.52;14.85;;;14.30;98.30;;;;;;5048690;28;20211;-73
2022/03/17 08:54:07;;;;;;;21.92;13.88;;;14.30;98.60;;;;;;5048525;28;20162;-73
2022/03/17 08:56:34;;;;;;;20.92;13.23;;;14.80;98.10;;;;;;5051871;28;20219;-73
2022/03/17 08:59:00;;;;;;;21.40;12.77;;;15.20;97.10;;;;;;5068321;28;20196;-73
2022/03/17 09:01:26;;;;;;;20.65;12.30;;;15.40;97.30;;;;;;5068253;28;20202;-73
2022/03/17 09:03:53;;;;;;;22.52;13.75;;;15.50;96.60;;;;;;5068405;28;20239;-73
2022/03/17 09:06:18;;;;;;;23.27;14.05;;;15.10;97.50;;;;;;5064882;28;20204;-73
2022/03/17 09:08:44;;;;;;;23.75;14.13;;;14.50;97.40;;;;;;5065948;28;20191;-72
2022/03/17 09:11:14;;;;;;;23.88;14.32;;;14.30;97.80;;;;;;5066903;28;20196;-73
2022/03/17 09:13:41;;;;;;;21.63;13.95;;;14.70;97.80;;;;;;5067599;28;20161;-73
2022/03/17 09:16:08;;;;;;;20.50;13.63;;;15.60;96.70;;;;;;5068196;28;20181;-73
2022/03/17 09:18:34;;;;;;;24.35;15.55;;;15.80;96.60;;;;;;5067273;28;20197;-73
2022/03/17 09:21:00;;;;;;;21.45;14.63;;;15.50;96.70;;;;;;5050145;28;20169;-73
2022/03/17 09:23:29;;;;;;;26.38;15.65;;;15.20;97.00;;;;;;5068272;28;20161;-73
2022/03/17 09:25:56;;;;;;;27.33;14.88;;;15.10;97.10;;;;;;5068209;28;20247;-73
2022/03/17 09:28:22;;;;;;;19.50;14.50;;;15.30;96.90;;;;;;5068136;28;20227;-73
2022/03/17 09:30:50;;;;;;;20.88;14.88;;;15.80;96.50;;;;;;5068129;28;20192;-73
2022/03/17 09:33:17;;;;;;;22.67;15.05;;;16.40;95.90;;;;;;5068160;28;20157;-73
2022/03/17 09:35:43;;;;;;;21.90;15.32;;;16.40;95.60;;;;;;5071608;28;20161;-72
2022/03/17 09:38:10;;;;;;;23.30;14.75;;;16.50;95.90;;;;;;5071561;28;20200;-74
2022/03/17 09:40:38;;;;;;;25.90;15.23;;;16.90;95.00;;;;;;5071260;28;20176;-74
2022/03/17 09:43:21;;;;;;;25.05;15.32;;;17.30;95.60;;;;;;5053583;28;20173;-74
2022/03/17 09:45:51;;;;;;;18.98;13.63;;;17.20;94.50;;;;;;5053531;28;20168;-74
2022/03/17 09:48:18;;;;;;;20.25;13.18;;;16.50;94.50;;;;;;5071456;28;20276;-74
2022/03/17 09:50:46;;;;;;;22.27;13.95;;;16.30;95.20;;;;;;5071385;28;20161;-73
2022/03/17 09:53:12;;;;;;;20.65;12.85;;;16.30;95.00;;;;;;5071420;28;20239;-73
2022/03/17 09:55:43;;;;;;;20.52;13.50;;;15.90;95.50;;;;;;5071340;28;20188;-73
2022/03/17 09:58:10;;;;;;;21.80;12.77;;;17.20;94.90;;;;;;5070905;28;20220;-73
2022/03/17 10:00:48;;;;;;;23.23;13.40;;;17.70;93.50;;;;;;5071293;28;20165;-73
2022/03/17 10:03:16;;;;;;;18.05;13.13;;;17.60;94.00;;;;;;5071363;28;20149;-73
2022/03/17 10:05:45;;;;;;;23.42;12.38;;;16.90;93.50;;;;;;5071052;28;20192;-73
2022/03/17 10:08:11;;;;;;;18.63;13.10;;;16.90;94.50;;;;;;5053162;28;20199;-73
2022/03/17 10:10:38;;;;;;;19.35;13.30;;;17.50;93.80;;;;;;5070993;28;20176;-73
2022/03/17 10:13:25;;;;;;;17.98;12.18;;;17.50;92.30;;;;;;5069758;28;20188;-73
2022/03/17 10:16:11;;;;;;;19.35;11.40;;;18.40;92.50;;;;;;5070812;28;20204;-73
2022/03/17 10:18:39;;;;;;;23.05;12.95;;;18.40;92.40;;;;;;5069275;28;20731;-73
2022/03/17 10:21:12;;;;;;;16.92;10.63;;;19.30;90.80;;;;;;5069635;28;20220;-73
2022/03/17 10:23:56;;;;;;;16.20;11.27;;;18.90;91.10;;;;;;5070840;28;20188;-73
2022/03/17 10:26:40;;;;;;;21.05;12.85;;;18.60;91.70;;;;;;5069933;28;20152;-73
2022/03/17 10:29:26;;;;;;;15.32;11.88;;;18.30;91.30;;;;;;5052877;28;20210;-73
2022/03/17 10:32:05;;;;;;;20.27;12.60;;;17.70;91.80;;;;;;5069945;28;20208;-73
2022/03/17 10:34:46;;;;;;;18.00;11.20;;;17.10;92.20;;;;;;5070644;28;20184;-72
2022/03/17 10:37:16;;;;;;;15.90;10.07;;;17.60;92.60;;;;;;5070694;28;20167;-73
2022/03/17 10:39:45;;;;;;;18.35;11.18;;;17.10;92.20;;;;;;5070424;28;20208;-72
2022/03/17 10:42:15;;;;;;;14.70;10.65;;;17.00;92.80;;;;;;5070464;28;20169;-73
2022/03/17 10:44:46;;;;;;;24.13;12.35;;;17.60;92.60;;;;;;5051905;28;20173;-73
2022/03/17 10:47:12;;;;;;;16.40;11.88;;;17.30;92.20;;;;;;5070240;28;20183;-73
2022/03/17 10:49:58;;;;;;;19.83;11.27;;;17.50;91.40;;;;;;5070213;28;20168;-73
2022/03/17 10:52:23;;;;;;;17.38;10.88;;;17.90;91.80;;;;;;5070290;28;20203;-73
2022/03/17 10:54:57;;;;;;;15.63;10.65;;;17.80;92.20;;;;;;5070291;28;20156;-73
2022/03/17 10:57:25;;;;;;;17.45;10.60;;;18.00;90.90;;;;;;5069986;28;20227;-73
2022/03/17 10:59:55;;;;;;;17.15;10.30;;;17.60;92.20;;;;;;5070075;28;20208;-73
2022/03/17 11:02:25;;;;;;;13.90;10.40;;;18.50;91.40;;;;;;5070212;28;20156;-73
2022/03/17 11:04:51;;;;;;;15.50;9.38;;;18.60;90.00;;;;;;5069882;28;20236;-73
2022/03/17 11:07:19;;;;;;;13.30;8.55;;;17.50;90.20;;;;;;5069979;28;20165;-73
2022/03/17 11:09:46;;;;;;;12.88;8.73;;;17.00;90.80;;;;;;5069989;28;20164;-73
2022/03/17 11:12:17;;;;;;;12.82;8.32;;;16.80;91.30;;;;;;5069762;28;20165;-73
2022/03/17 11:14:46;;;;;;;19.00;11.35;;;17.00;90.80;;;;;;5069894;28;20228;-73
2022/03/17 11:17:16;;;;;;;16.98;10.10;;;18.40;90.40;;;;;;5051900;28;20193;-74
2022/03/17 11:19:44;;;;;;;12.77;9.15;;;19.00;89.20;;;;;;5069710;28;20196;-73
2022/03/17 11:22:16;;;;;;;16.08;9.57;;;19.10;90.00;;;;;;5069729;28;20165;-73
2022/03/17 11:24:42;;;;;;;13.70;8.43;;;19.30;85.90;;;;;;5069653;28;20160;-73
2022/03/17 11:27:13;;;;;;;15.55;10.13;;;18.50;88.70;;;;;;5069641;28;20160;-73
2022/03/17 11:29:44;;;;;;;17.15;9.60;;;19.10;88.30;;;;;;5069699;28;20161;-73
2022/03/17 11:32:28;;;;;;;11.65;8.80;;;18.50;86.20;;;;;;5069460;28;20161;-73
2022/03/17 11:35:29;;;;;;;13.93;9.30;;;17.90;89.30;;;;;;5069684;28;20179;-73
2022/03/17 11:38:26;;;;;;;13.55;7.88;;;19.10;84.80;;;;;;4952715;29;20192;-73
2022/03/17 11:41:08;;;;;;;10.68;8.25;;;19.40;86.80;;;;;;4911708;29;20213;-73
2022/03/17 11:43:46;;;;;;;12.70;8.63;;;19.20;83.70;;;;;;4911713;29;20186;-74
2022/03/17 11:46:13;;;;;;;15.82;8.95;;;19.20;82.50;;;;;;4911630;29;20182;-74
2022/03/17 11:48:39;;;;;;;13.52;8.38;;;18.30;83.70;;;;;;4911751;29;20261;-73
2022/03/17 11:51:07;;;;;;;12.98;7.82;;;17.70;85.50;;;;;;4911752;29;20221;-73
2022/03/17 11:53:57;;;;;;;10.98;7.55;;;17.00;85.10;;;;;;4911661;29;20351;-73
2022/03/17 11:56:42;;;;;;;13.00;7.28;;;17.40;85.70;;;;;;4907429;29;20194;-73
2022/03/17 11:59:09;;;;;;;11.18;8.05;;;18.40;81.70;;;;;;4911373;29;20317;-73
2022/03/17 12:01:41;;;;;;;15.55;7.47;;;17.40;83.40;;;;;;4911458;29;20206;-73
2022/03/17 12:04:17;;;;;;;12.32;8.02;;;16.60;87.20;;;;;;4911517;29;20190;-73
2022/03/17 12:06:53;;;;;;;11.85;8.38;;;17.60;83.60;;;;;;4911329;29;20209;-73
2022/03/17 12:09:36;;;;;;;11.93;8.27;;;17.90;82.90;;;;;;4911328;29;20185;-73
2022/03/17 12:12:17;;;;;;;10.90;7.28;;;17.30;86.20;;;;;;4911460;29;20170;-73
2022/03/17 12:14:57;;;;;;;10.15;7.18;;;16.90;87.40;;;;;;4988074;28;20206;-73
2022/03/17 12:17:25;;;;;;;9.98;7.25;;;16.10;88.00;;;;;;5061188;28;20238;-72
2022/03/17 12:20:19;;;;;;;11.43;7.30;;;15.90;89.90;;;;;;5068645;28;20192;-72
2022/03/17 12:22:45;;;;;;;12.15;7.25;;;16.10;89.60;;;;;;5068882;28;20160;-73
2022/03/17 12:25:20;;;;;;;10.85;7.55;;;16.70;89.00;;;;;;5068686;28;20501;-72
2022/03/17 12:27:55;;;;;;;11.60;7.18;;;17.10;84.90;;;;;;5068346;28;20152;-73
2022/03/17 12:30:24;;;;;;;12.30;7.88;;;17.10;83.90;;;;;;5068483;28;20216;-73
2022/03/17 12:32:54;;;;;;;12.43;8.05;;;16.30;88.70;;;;;;5068576;28;20176;-74
2022/03/17 12:35:23;;;;;;;13.65;8.70;;;16.00;89.40;;;;;;5068449;28;20157;-74
2022/03/17 12:37:49;;;;;;;11.85;7.95;;;15.50;89.80;;;;;;5050482;28;20173;-73
2022/03/17 12:40:19;;;;;;;11.73;8.40;;;15.60;90.60;;;;;;5068587;28;20188;-74
2022/03/17 12:42:47;;;;;;;12.27;8.10;;;15.30;90.40;;;;;;5068696;28;20543;-73
2022/03/17 12:45:16;;;;;;;15.43;8.32;;;15.30;90.50;;;;;;5068548;28;20183;-74
2022/03/17 12:47:52;;;;;;;10.90;7.53;;;15.50;90.00;;;;;;5050637;28;20169;-73
2022/03/17 12:50:20;;;;;;;12.85;7.63;;;15.10;90.10;;;;;;5067841;28;20223;-73
2022/03/17 12:52:48;;;;;;;12.55;7.63;;;14.90;90.50;;;;;;5068450;28;20153;-73